createdAt,value
2019-05-25T00:01:15.418Z,16.67
2019-05-25T00:03:45.357Z,17.35
2019-05-25T00:06:15.482Z,18.52
2019-05-25T00:08:45.422Z,17.00
2019-05-25T00:11:15.529Z,16.50
2019-05-25T00:13:45.455Z,16.62
2019-05-25T00:16:15.590Z,16.62
2019-05-25T00:18:45.583Z,16.52
2019-05-25T00:21:15.621Z,16.97
2019-05-25T00:23:45.559Z,16.48
2019-05-25T00:26:15.410Z,17.90
2019-05-25T00:28:45.438Z,16.42
2019-05-25T00:31:15.477Z,16.42
2019-05-25T00:33:45.573Z,17.65
2019-05-25T00:36:15.637Z,16.40
2019-05-25T00:38:45.559Z,18.27
2019-05-25T00:41:15.422Z,16.73
2019-05-25T00:43:45.365Z,17.48
2019-05-25T00:46:16.521Z,17.50
2019-05-25T00:48:46.440Z,18.10
2019-05-25T00:51:16.454Z,17.37
2019-05-25T00:53:46.478Z,17.60
2019-05-25T00:56:16.341Z,17.92
2019-05-25T00:58:46.361Z,19.20
2019-05-25T01:01:16.310Z,18.27
2019-05-25T01:03:46.370Z,18.57
2019-05-25T01:06:16.359Z,18.42
2019-05-25T01:08:46.240Z,18.67
2019-05-25T01:11:16.109Z,18.52
2019-05-25T01:13:46.054Z,19.32
2019-05-25T01:16:15.930Z,18.82
2019-05-25T01:18:45.954Z,18.50
2019-05-25T01:21:15.876Z,20.27
2019-05-25T01:23:45.757Z,19.12
2019-05-25T01:26:15.733Z,19.05
2019-05-25T01:28:45.678Z,19.80
2019-05-25T01:31:15.744Z,19.15
2019-05-25T01:33:45.745Z,18.77
2019-05-25T01:36:15.635Z,19.85
2019-05-25T01:38:45.581Z,19.82
2019-05-25T01:41:15.526Z,20.12
2019-05-25T01:43:45.425Z,20.15
2019-05-25T01:46:15.381Z,19.57
2019-05-25T01:48:45.317Z,19.10
2019-05-25T01:51:15.239Z,19.15
2019-05-25T01:53:45.118Z,18.30
2019-05-25T01:56:15.041Z,19.05
2019-05-25T01:58:45.009Z,18.32
2019-05-25T02:01:14.999Z,18.45
2019-05-25T02:03:44.966Z,17.25
2019-05-25T02:06:14.849Z,18.85
2019-05-25T02:08:44.738Z,18.07
2019-05-25T02:11:14.609Z,17.52
2019-05-25T02:13:44.473Z,20.95
2019-05-25T02:16:14.428Z,18.55
2019-05-25T02:18:45.724Z,18.77
2019-05-25T02:21:15.930Z,19.57
2019-05-25T02:23:45.841Z,22.55
2019-05-25T02:26:15.777Z,24.23
2019-05-25T02:28:45.732Z,25.70
2019-05-25T02:31:16.516Z,26.73
2019-05-25T02:33:46.463Z,26.50
2019-05-25T02:36:16.374Z,25.08
2019-05-25T02:38:46.326Z,23.18
2019-05-25T02:41:16.280Z,24.67
2019-05-25T02:43:46.147Z,25.10
2019-05-25T02:46:16.176Z,25.10
2019-05-25T02:48:46.218Z,25.45
2019-05-25T02:51:16.214Z,24.12
2019-05-25T02:53:47.198Z,24.27
2019-05-25T02:56:17.058Z,25.12
2019-05-25T02:58:47.032Z,26.55
2019-05-25T03:01:16.883Z,25.55
2019-05-25T03:03:46.853Z,25.57
2019-05-25T03:06:17.897Z,26.23
2019-05-25T03:08:48.948Z,25.55
2019-05-25T03:11:19.886Z,24.90
2019-05-25T03:13:49.898Z,26.25
2019-05-25T03:16:20.903Z,26.27
2019-05-25T03:18:50.866Z,25.32
2019-05-25T03:21:20.791Z,25.08
2019-05-25T03:23:50.749Z,26.57
2019-05-25T03:26:20.722Z,24.67
2019-05-25T03:28:50.736Z,27.30
2019-05-25T03:31:20.608Z,25.82
2019-05-25T03:33:50.560Z,26.45
2019-05-25T03:36:20.479Z,25.45
2019-05-25T03:38:50.359Z,25.80
2019-05-25T03:41:20.221Z,27.82
2019-05-25T03:43:50.193Z,27.30
2019-05-25T03:46:21.221Z,28.10
2019-05-25T03:48:51.183Z,29.25
2019-05-25T03:51:21.210Z,29.07
2019-05-25T03:53:51.134Z,29.50
2019-05-25T03:56:21.027Z,29.98
2019-05-25T03:58:50.909Z,29.57
2019-05-25T04:01:20.830Z,30.70
2019-05-25T04:03:50.713Z,30.72
2019-05-25T04:06:20.706Z,31.30
2019-05-25T04:08:50.687Z,31.17
2019-05-25T04:11:20.682Z,32.53
2019-05-25T04:13:50.580Z,30.90
2019-05-25T04:16:20.585Z,31.80
2019-05-25T04:18:50.502Z,30.45
2019-05-25T04:21:20.438Z,31.57
2019-05-25T04:23:50.337Z,31.93
2019-05-25T04:26:22.764Z,31.17
2019-05-25T04:28:53.013Z,33.28
2019-05-25T04:31:23.098Z,33.33
2019-05-25T04:33:52.946Z,32.78
2019-05-25T04:36:22.925Z,34.05
2019-05-25T04:38:52.972Z,33.58
2019-05-25T04:41:22.905Z,34.15
2019-05-25T04:43:52.925Z,34.43
2019-05-25T04:46:22.852Z,35.25
2019-05-25T04:48:52.746Z,36.28
2019-05-25T04:51:22.685Z,37.00
2019-05-25T04:53:52.558Z,36.98
2019-05-25T04:56:38.333Z,37.03
2019-05-25T04:58:54.007Z,38.48
2019-05-25T05:01:23.948Z,36.20
2019-05-25T05:03:53.905Z,35.20
2019-05-25T05:06:23.758Z,37.85
2019-05-25T05:08:53.725Z,36.48
2019-05-25T05:11:23.715Z,35.50
2019-05-25T05:13:53.662Z,36.13
2019-05-25T05:16:23.519Z,36.23
2019-05-25T05:18:53.416Z,36.77
2019-05-25T05:21:23.356Z,37.60
2019-05-25T05:23:53.375Z,38.10
2019-05-25T05:26:23.304Z,36.17
2019-05-25T05:28:53.185Z,37.67
2019-05-25T05:31:23.943Z,38.35
2019-05-25T05:33:54.125Z,37.50
2019-05-25T05:36:25.583Z,37.58
2019-05-25T05:38:56.221Z,35.90
2019-05-25T05:41:26.890Z,35.38
2019-05-25T05:43:57.488Z,36.98
2019-05-25T05:46:29.493Z,36.80
2019-05-25T05:49:00.726Z,35.40
2019-05-25T05:51:33.883Z,36.00
2019-05-25T05:54:05.295Z,36.73
2019-05-25T05:56:35.306Z,34.80
2019-05-25T05:59:05.362Z,34.83
2019-05-25T06:01:35.293Z,35.23
2019-05-25T06:04:05.310Z,35.95
2019-05-25T06:06:35.158Z,34.65
2019-05-25T06:09:07.762Z,35.45
2019-05-25T06:11:37.679Z,36.73
2019-05-25T06:14:07.645Z,35.00
2019-05-25T06:16:37.658Z,35.95
2019-05-25T06:19:08.109Z,35.08
2019-05-25T06:21:38.070Z,35.55
2019-05-25T06:24:08.100Z,36.05
2019-05-25T06:26:38.064Z,36.00
2019-05-25T06:29:08.037Z,36.95
2019-05-25T06:31:38.031Z,37.25
2019-05-25T06:34:07.919Z,35.70
2019-05-25T06:36:37.874Z,36.40
2019-05-25T06:39:08.486Z,35.78
2019-05-25T06:41:38.410Z,34.73
2019-05-25T06:44:08.460Z,31.60
2019-05-25T06:46:39.858Z,28.85
2019-05-25T06:49:10.009Z,22.50
2019-05-25T06:51:39.949Z,22.02
2019-05-25T06:54:09.930Z,19.85
2019-05-25T06:56:39.869Z,17.60
2019-05-25T06:59:09.965Z,16.87
2019-05-25T07:01:39.919Z,14.40
2019-05-25T07:04:09.965Z,13.40
2019-05-25T07:06:39.905Z,13.78
2019-05-25T07:09:09.924Z,13.78
2019-05-25T07:11:39.793Z,14.28
2019-05-25T07:14:09.886Z,14.63
2019-05-25T07:16:40.807Z,16.70
2019-05-25T07:19:10.779Z,17.25
2019-05-25T07:21:40.786Z,17.12
2019-05-25T07:24:10.745Z,15.50
2019-05-25T07:26:40.715Z,14.98
2019-05-25T07:29:11.409Z,16.12
2019-05-25T07:31:41.325Z,14.60
2019-05-25T07:34:11.433Z,12.53
2019-05-25T07:36:41.397Z,8.30
2019-05-25T07:39:11.329Z,7.45
2019-05-25T07:41:41.357Z,5.10
2019-05-25T07:44:11.289Z,3.83
2019-05-25T07:46:41.250Z,3.25
2019-05-25T07:49:11.182Z,2.77
2019-05-25T07:51:41.144Z,3.00
2019-05-25T07:54:11.048Z,1.92
2019-05-25T07:56:41.015Z,1.72
2019-05-25T07:59:11.430Z,1.60
2019-05-25T08:01:41.307Z,1.52
2019-05-25T08:04:11.350Z,1.70
2019-05-25T08:06:41.337Z,1.40
2019-05-25T08:09:11.434Z,1.52
2019-05-25T08:11:41.309Z,1.60
2019-05-25T08:14:11.323Z,1.40
2019-05-25T08:16:41.166Z,1.65
2019-05-25T08:19:11.058Z,1.37
2019-05-25T08:21:41.111Z,1.45
2019-05-25T08:24:11.126Z,1.47
2019-05-25T08:26:41.065Z,1.60
2019-05-25T08:29:10.933Z,1.75
2019-05-25T08:31:40.792Z,1.40
2019-05-25T08:34:11.843Z,1.50
2019-05-25T08:36:41.765Z,1.50
2019-05-25T08:39:11.651Z,1.37
2019-05-25T08:41:45.287Z,1.42
2019-05-25T08:44:13.346Z,1.40
2019-05-25T08:46:43.389Z,1.47
2019-05-25T08:49:13.481Z,1.50
2019-05-25T08:51:44.647Z,1.62
2019-05-25T08:54:14.592Z,1.77
2019-05-25T08:56:44.468Z,1.52
2019-05-25T08:59:14.306Z,1.60
2019-05-25T09:01:44.230Z,1.80
2019-05-25T09:04:14.135Z,1.90
2019-05-25T09:06:44.156Z,1.70
2019-05-25T09:09:14.206Z,1.90
2019-05-25T09:11:44.299Z,1.65
2019-05-25T09:14:14.336Z,1.55
2019-05-25T09:16:44.846Z,2.02
2019-05-25T09:19:14.790Z,1.82
2019-05-25T09:22:00.995Z,1.50
2019-05-25T09:24:16.691Z,1.65
2019-05-25T09:26:46.769Z,1.70
2019-05-25T09:29:16.629Z,1.62
2019-05-25T09:31:46.638Z,1.60
2019-05-25T09:34:16.591Z,1.60
2019-05-25T09:36:46.528Z,2.00
2019-05-25T09:39:16.538Z,1.70
2019-05-25T09:41:46.468Z,1.90
2019-05-25T09:44:16.425Z,2.05
2019-05-25T09:46:46.474Z,2.17
2019-05-25T09:49:16.535Z,2.42
2019-05-25T09:51:48.560Z,2.05
2019-05-25T09:54:18.086Z,2.27
2019-05-25T09:56:48.017Z,2.12
2019-05-25T09:59:20.779Z,2.47
2019-05-25T10:01:50.829Z,2.05
2019-05-25T10:04:20.942Z,2.30
2019-05-25T10:06:50.909Z,2.25
2019-05-25T10:09:21.390Z,2.37
2019-05-25T10:11:53.010Z,2.80
2019-05-25T10:14:23.456Z,2.35
2019-05-25T10:16:54.303Z,1.90
2019-05-25T10:19:24.210Z,2.70
2019-05-25T10:21:54.213Z,2.33
2019-05-25T10:24:25.248Z,2.25
2019-05-25T10:26:55.081Z,2.20
2019-05-25T10:29:36.662Z,2.47
2019-05-25T10:31:57.299Z,2.60
2019-05-25T10:34:27.302Z,2.47
2019-05-25T10:36:57.141Z,2.52
2019-05-25T10:39:27.001Z,2.50
2019-05-25T10:41:56.902Z,3.20
2019-05-25T10:44:26.854Z,3.37
2019-05-25T10:46:59.118Z,3.90
2019-05-25T10:49:29.125Z,3.77
2019-05-25T10:52:00.225Z,3.58
2019-05-25T10:54:33.653Z,3.55
2019-05-25T10:57:05.028Z,3.53
2019-05-25T10:59:51.642Z,3.35
2019-05-25T11:02:09.222Z,3.42
2019-05-25T11:04:39.267Z,4.42
2019-05-25T11:07:09.192Z,4.90
2019-05-25T11:09:39.543Z,4.70
2019-05-25T11:12:09.540Z,7.40
2019-05-25T11:14:39.668Z,9.48
2019-05-25T11:17:09.567Z,8.50
2019-05-25T11:19:39.563Z,7.58
2019-05-25T11:22:09.495Z,8.88
2019-05-25T11:24:45.231Z,9.90
2019-05-25T11:27:17.937Z,8.63
2019-05-25T11:29:48.060Z,7.78
2019-05-25T11:32:19.029Z,8.73
2019-05-25T11:34:49.630Z,7.17
2019-05-25T11:37:19.706Z,7.87
2019-05-25T11:39:49.830Z,7.33
2019-05-25T11:42:19.881Z,6.42
2019-05-25T11:44:49.762Z,7.87
2019-05-25T11:47:19.696Z,6.80
2019-05-25T11:49:49.708Z,6.50
2019-05-25T11:52:19.689Z,7.22
2019-05-25T11:54:49.650Z,7.33
2019-05-25T11:57:19.635Z,8.23
2019-05-25T11:59:49.529Z,8.28
2019-05-25T12:02:19.494Z,8.35
2019-05-25T12:04:49.513Z,8.40
2019-05-25T12:07:19.432Z,8.73
2019-05-25T12:09:49.523Z,9.25
2019-05-25T12:12:19.565Z,8.78
2019-05-25T12:14:49.528Z,7.87
2019-05-25T12:17:19.438Z,9.55
2019-05-25T12:19:49.405Z,6.35
2019-05-25T12:22:19.382Z,7.17
2019-05-25T12:24:49.345Z,6.53
2019-05-25T12:27:19.372Z,7.08
2019-05-25T12:29:49.433Z,6.35
2019-05-25T12:32:19.398Z,7.20
2019-05-25T12:34:49.362Z,6.97
2019-05-25T12:37:19.353Z,6.30
2019-05-25T12:39:49.312Z,7.20
2019-05-25T12:42:19.299Z,7.33
2019-05-25T12:44:49.244Z,7.97
2019-05-25T12:47:19.091Z,8.00
2019-05-25T12:49:51.003Z,10.23
2019-05-25T12:52:20.578Z,7.85
2019-05-25T12:54:50.612Z,10.23
2019-05-25T12:57:22.346Z,8.18
2019-05-25T12:59:52.264Z,9.20
2019-05-25T13:02:22.181Z,8.65
2019-05-25T13:04:52.232Z,8.75
2019-05-25T13:07:22.295Z,9.30
2019-05-25T13:09:52.175Z,9.00
2019-05-25T13:12:22.121Z,9.00
2019-05-25T13:14:52.167Z,9.40
2019-05-25T13:17:22.007Z,9.80
2019-05-25T13:19:51.938Z,9.58
2019-05-25T13:22:21.854Z,9.85
2019-05-25T13:24:51.800Z,10.28
2019-05-25T13:27:26.678Z,10.43
2019-05-25T13:29:57.509Z,10.88
2019-05-25T13:32:28.058Z,12.05
2019-05-25T13:34:57.939Z,13.22
2019-05-25T13:37:27.860Z,11.85
2019-05-25T13:39:57.837Z,11.22
2019-05-25T13:42:27.743Z,12.03
2019-05-25T13:44:57.763Z,12.73
2019-05-25T13:47:27.711Z,12.95
2019-05-25T13:49:57.682Z,12.50
2019-05-25T13:52:27.685Z,12.35
2019-05-25T13:54:57.660Z,11.22
2019-05-25T13:57:27.514Z,10.35
2019-05-25T13:59:57.418Z,10.35
2019-05-25T14:02:27.487Z,12.18
2019-05-25T14:04:57.697Z,11.80
2019-05-25T14:07:30.342Z,10.60
2019-05-25T14:10:00.562Z,12.13
2019-05-25T14:12:30.509Z,11.30
2019-05-25T14:15:00.470Z,11.12
2019-05-25T14:17:30.397Z,11.48
2019-05-25T14:20:02.655Z,10.40
2019-05-25T14:22:32.625Z,10.60
2019-05-25T14:25:02.631Z,11.75
2019-05-25T14:27:32.598Z,10.05
2019-05-25T14:30:02.638Z,8.28
2019-05-25T14:32:32.746Z,9.18
2019-05-25T14:35:06.884Z,8.83
2019-05-25T14:37:38.417Z,7.80
2019-05-25T14:40:12.302Z,6.80
2019-05-25T14:42:43.898Z,7.83
2019-05-25T14:45:17.309Z,8.78
2019-05-25T14:47:48.678Z,9.50
2019-05-25T14:50:18.775Z,10.38
2019-05-25T14:52:48.714Z,11.03
2019-05-25T14:55:18.838Z,12.15
2019-05-25T14:57:50.907Z,10.80
2019-05-25T15:00:21.099Z,9.63
2019-05-25T15:02:51.130Z,9.08
2019-05-25T15:05:21.065Z,9.95
2019-05-25T15:07:51.011Z,10.25
2019-05-25T15:10:20.946Z,10.60
2019-05-25T15:12:51.123Z,10.43
2019-05-25T15:15:22.261Z,9.40
2019-05-25T15:17:52.288Z,10.58
2019-05-25T15:20:22.882Z,10.85
2019-05-25T15:22:52.804Z,10.55
2019-05-25T15:25:26.156Z,10.72
2019-05-25T15:27:55.825Z,9.78
2019-05-25T15:30:26.001Z,10.90
2019-05-25T15:32:56.079Z,10.08
2019-05-25T15:35:26.108Z,10.68
2019-05-25T15:37:56.028Z,10.48
2019-05-25T15:40:26.142Z,10.72
2019-05-25T15:42:56.149Z,11.45
2019-05-25T15:45:26.246Z,11.73
2019-05-25T15:47:56.181Z,12.15
2019-05-25T15:50:27.834Z,13.03
2019-05-25T15:52:57.845Z,13.35
2019-05-25T15:55:27.958Z,12.33
2019-05-25T15:57:58.042Z,13.10
2019-05-25T16:00:48.364Z,13.60
2019-05-25T16:03:19.978Z,12.20
2019-05-25T16:05:49.985Z,11.83
2019-05-25T16:08:20.396Z,11.10
2019-05-25T16:10:50.411Z,11.20
2019-05-25T16:13:20.374Z,11.30
2019-05-25T16:15:51.524Z,9.50
2019-05-25T16:18:21.606Z,9.63
2019-05-25T16:20:54.162Z,7.67
2019-05-25T16:23:24.126Z,7.80
2019-05-25T16:25:54.177Z,7.50
2019-05-25T16:28:24.203Z,7.33
2019-05-25T16:30:54.045Z,7.28
2019-05-25T16:33:23.982Z,7.20
2019-05-25T16:35:57.745Z,7.28
2019-05-25T16:38:25.471Z,7.37
2019-05-25T16:40:55.474Z,6.72
2019-05-25T16:43:25.450Z,7.17
2019-05-25T16:45:55.443Z,6.72
2019-05-25T16:48:25.429Z,6.45
2019-05-25T16:50:55.438Z,5.92
2019-05-25T16:53:25.410Z,5.15
2019-05-25T16:55:55.304Z,5.12
2019-05-25T16:58:25.356Z,4.87
2019-05-25T17:00:55.310Z,5.37
2019-05-25T17:03:28.467Z,4.58
2019-05-25T17:05:56.808Z,5.15
2019-05-25T17:08:28.288Z,5.53
2019-05-25T17:10:58.223Z,5.55
2019-05-25T17:13:28.230Z,5.62
2019-05-25T17:15:58.250Z,5.03
2019-05-25T17:18:28.225Z,7.00
2019-05-25T17:20:58.260Z,12.98
2019-05-25T17:23:28.287Z,14.30
2019-05-25T17:25:58.401Z,14.58
2019-05-25T17:28:29.499Z,14.95
2019-05-25T17:31:00.518Z,15.05
2019-05-25T17:33:44.785Z,14.38
2019-05-25T17:36:02.293Z,16.32
2019-05-25T17:38:32.297Z,18.50
2019-05-25T17:41:02.217Z,17.30
2019-05-25T17:43:32.413Z,17.57
2019-05-25T17:46:02.482Z,17.15
2019-05-25T17:48:32.415Z,14.87
2019-05-25T17:51:02.394Z,13.08
2019-05-25T17:53:32.360Z,12.40
2019-05-25T17:56:02.374Z,11.57
2019-05-25T17:58:32.382Z,11.30
2019-05-25T18:01:02.349Z,10.60
2019-05-25T18:03:32.339Z,10.95
2019-05-25T18:06:02.342Z,10.32
2019-05-25T18:08:32.476Z,10.03
2019-05-25T18:11:02.540Z,9.43
2019-05-25T18:13:32.562Z,10.38
2019-05-25T18:16:02.438Z,9.98
2019-05-25T18:18:32.381Z,9.45
2019-05-25T18:21:02.724Z,9.90
2019-05-25T18:23:32.678Z,10.03
2019-05-25T18:26:02.535Z,10.23
2019-05-25T18:28:33.185Z,11.97
2019-05-25T18:31:06.575Z,12.30
2019-05-25T18:33:36.634Z,12.58
2019-05-25T18:36:06.601Z,12.68
2019-05-25T18:38:36.487Z,14.38
2019-05-25T18:41:06.470Z,16.20
2019-05-25T18:43:37.447Z,14.00
2019-05-25T18:46:07.378Z,14.68
2019-05-25T18:48:37.389Z,14.55
2019-05-25T18:51:07.423Z,14.10
2019-05-25T18:53:37.380Z,13.30
2019-05-25T18:56:07.410Z,15.32
2019-05-25T18:58:38.364Z,16.55
2019-05-25T19:01:08.473Z,14.38
2019-05-25T19:03:38.450Z,15.15
2019-05-25T19:06:08.382Z,14.33
2019-05-25T19:08:38.349Z,17.75
2019-05-25T19:11:08.228Z,13.93
2019-05-25T19:13:38.189Z,16.00
2019-05-25T19:16:08.082Z,13.88
2019-05-25T19:18:38.142Z,15.63
2019-05-25T19:21:08.038Z,14.20
2019-05-25T19:23:38.054Z,17.67
2019-05-25T19:26:07.989Z,29.72
2019-05-25T19:28:38.032Z,16.80
2019-05-25T19:31:07.984Z,14.85
2019-05-25T19:33:37.946Z,15.23
2019-05-25T19:36:07.857Z,12.88
2019-05-25T19:38:37.781Z,14.53
2019-05-25T19:41:07.721Z,13.10
2019-05-25T19:43:38.740Z,13.55
2019-05-25T19:46:08.779Z,26.45
2019-05-25T19:48:38.793Z,11.18
2019-05-25T19:51:08.776Z,9.43
2019-05-25T19:53:38.699Z,9.43
2019-05-25T19:56:08.558Z,10.35
2019-05-25T19:58:38.646Z,13.55
2019-05-25T20:01:08.750Z,10.72
2019-05-25T20:03:38.701Z,10.28
2019-05-25T20:06:08.655Z,9.53
2019-05-25T20:08:38.755Z,9.88
2019-05-25T20:11:08.719Z,9.65
2019-05-25T20:13:38.767Z,9.10
2019-05-25T20:16:08.783Z,7.83
2019-05-25T20:18:38.732Z,8.50
2019-05-25T20:21:08.571Z,8.00
2019-05-25T20:23:38.497Z,7.45
2019-05-25T20:26:08.531Z,7.12
2019-05-25T20:28:38.535Z,6.22
2019-05-25T20:31:08.487Z,6.90
2019-05-25T20:33:38.341Z,8.83
2019-05-25T20:36:08.270Z,9.68
2019-05-25T20:38:38.251Z,10.08
2019-05-25T20:41:08.198Z,9.38
2019-05-25T20:43:38.140Z,8.30
2019-05-25T20:46:08.161Z,8.13
2019-05-25T20:48:38.037Z,8.23
2019-05-25T20:51:08.069Z,8.10
2019-05-25T20:53:38.510Z,8.93
2019-05-25T20:56:08.547Z,7.45
2019-05-25T20:58:39.316Z,8.43
2019-05-25T21:01:09.370Z,8.20
2019-05-25T21:03:39.283Z,8.48
2019-05-25T21:06:09.226Z,8.63
2019-05-25T21:08:39.206Z,8.68
2019-05-25T21:11:09.125Z,9.25
2019-05-25T21:13:39.030Z,8.60
2019-05-25T21:16:08.935Z,9.35
2019-05-25T21:18:39.041Z,9.33
2019-05-25T21:21:08.978Z,8.90
2019-05-25T21:23:41.753Z,8.98
2019-05-25T21:26:12.758Z,8.75
2019-05-25T21:28:43.122Z,8.80
2019-05-25T21:31:13.093Z,8.88
2019-05-25T21:33:46.090Z,8.48
2019-05-25T21:36:17.539Z,9.93
2019-05-25T21:38:51.863Z,9.43
2019-05-25T21:41:21.782Z,9.98
2019-05-25T21:43:51.803Z,9.35
2019-05-25T21:46:21.845Z,10.50
2019-05-25T21:48:54.816Z,11.35
2019-05-25T21:51:24.928Z,10.70
2019-05-25T21:53:56.587Z,10.55
2019-05-25T21:56:26.542Z,9.35
2019-05-25T21:58:56.573Z,9.73
2019-05-25T22:01:26.849Z,10.20
2019-05-25T22:03:56.781Z,10.50
2019-05-25T22:06:26.811Z,11.08
2019-05-25T22:08:56.742Z,10.23
2019-05-25T22:11:26.746Z,10.23
2019-05-25T22:13:56.701Z,10.32
2019-05-25T22:16:26.689Z,11.20
2019-05-25T22:18:56.643Z,11.15
2019-05-25T22:21:26.574Z,11.93
2019-05-25T22:23:57.112Z,11.68
2019-05-25T22:26:27.516Z,12.33
2019-05-25T22:28:57.417Z,12.25
2019-05-25T22:31:27.419Z,11.83
2019-05-25T22:33:59.396Z,11.53
2019-05-25T22:36:39.781Z,11.25
2019-05-25T22:39:00.610Z,11.03
2019-05-25T22:41:32.314Z,10.80
2019-05-25T22:44:02.830Z,11.43
2019-05-25T22:46:32.774Z,10.28
2019-05-25T22:49:02.878Z,10.32
2019-05-25T22:51:33.522Z,9.25
2019-05-25T22:54:03.589Z,9.28
2019-05-25T22:56:34.654Z,11.03
2019-05-25T22:59:04.658Z,11.95
2019-05-25T23:01:34.604Z,12.90
2019-05-25T23:04:04.578Z,13.85
2019-05-25T23:06:34.613Z,13.28
2019-05-25T23:09:07.090Z,13.35
2019-05-25T23:11:37.126Z,14.60
2019-05-25T23:14:11.610Z,16.27
2019-05-25T23:16:41.666Z,17.00
2019-05-25T23:19:11.563Z,15.55
2019-05-25T23:21:41.509Z,16.12
2019-05-25T23:24:11.507Z,15.15
2019-05-25T23:26:41.613Z,15.20
2019-05-25T23:29:11.561Z,14.75
2019-05-25T23:31:41.607Z,16.45
2019-05-25T23:34:11.537Z,15.95
2019-05-25T23:36:41.526Z,17.20
2019-05-25T23:39:11.605Z,15.50
2019-05-25T23:41:41.522Z,15.83
2019-05-25T23:44:11.403Z,15.63
2019-05-25T23:46:41.494Z,14.65
2019-05-25T23:49:13.118Z,16.75
2019-05-25T23:51:43.080Z,16.55
2019-05-25T23:54:13.009Z,16.62
2019-05-25T23:56:42.959Z,19.45
2019-05-25T23:59:12.897Z,18.05
